createdAt,value
2023-01-11T00:04:56.247Z,70.46
2023-01-11T00:10:05.159Z,70.49
2023-01-11T00:15:14.935Z,70.49
2023-01-11T00:20:23.416Z,70.53
2023-01-11T00:25:31.825Z,70.58
2023-01-11T00:30:40.448Z,70.63
2023-01-11T00:35:48.728Z,70.65
2023-01-11T00:40:57.094Z,70.69
2023-01-11T00:46:22.477Z,70.78
2023-01-11T00:51:30.913Z,70.86
2023-01-11T00:56:39.440Z,70.90
2023-01-11T01:01:48.101Z,70.93
2023-01-11T01:06:56.849Z,70.94
2023-01-11T01:12:07.376Z,70.95
2023-01-11T01:17:16.281Z,70.91
2023-01-11T01:22:24.909Z,70.86
2023-01-11T01:27:33.332Z,70.88
2023-01-11T01:32:41.770Z,70.90
2023-01-11T01:37:50.273Z,70.91
2023-01-11T01:42:59.380Z,70.93
2023-01-11T01:48:09.410Z,70.95
2023-01-11T01:53:22.249Z,70.93
2023-01-11T01:58:38.095Z,70.84
2023-01-11T02:03:46.384Z,70.77
2023-01-11T02:09:01.892Z,70.72
2023-01-11T02:14:15.340Z,70.69
2023-01-11T02:19:50.043Z,70.66
2023-01-11T02:25:27.291Z,70.63
2023-01-11T02:30:41.669Z,70.63
2023-01-11T02:36:04.241Z,70.67
2023-01-11T02:41:22.095Z,70.69
2023-01-11T02:46:37.209Z,70.64
2023-01-11T02:51:51.384Z,70.58
2023-01-11T02:57:02.876Z,70.56
2023-01-11T03:02:11.155Z,70.62
2023-01-11T03:07:36.608Z,70.66
2023-01-11T03:12:58.657Z,70.64
2023-01-11T03:18:19.564Z,70.55
2023-01-11T03:23:37.161Z,70.52
2023-01-11T03:28:52.632Z,70.51
2023-01-11T03:34:10.546Z,70.59
2023-01-11T03:39:26.532Z,70.56
2023-01-11T03:44:42.600Z,70.50
2023-01-11T03:49:55.433Z,70.51
2023-01-11T03:55:06.203Z,70.59
2023-01-11T04:00:15.853Z,70.66
2023-01-11T04:05:24.255Z,70.73
2023-01-11T04:10:32.596Z,70.79
2023-01-11T04:15:40.993Z,70.84
2023-01-11T04:20:50.173Z,70.89
2023-01-11T04:25:58.874Z,70.92
2023-01-11T04:31:07.397Z,70.96
2023-01-11T04:36:16.090Z,70.99
2023-01-11T04:41:55.490Z,71.04
2023-01-11T04:47:04.193Z,71.06
2023-01-11T04:52:14.243Z,71.05
2023-01-11T04:57:22.973Z,71.04
2023-01-11T05:02:31.486Z,71.02
2023-01-11T05:07:41.327Z,71.03
2023-01-11T05:12:49.559Z,71.02
2023-01-11T05:17:58.003Z,71.00
2023-01-11T05:23:06.319Z,71.00
2023-01-11T05:28:14.750Z,71.03
2023-01-11T05:33:23.171Z,71.04
2023-01-11T05:38:31.765Z,71.08
2023-01-11T05:44:02.575Z,71.10
2023-01-11T05:49:11.968Z,71.11
2023-01-11T05:54:20.398Z,71.09
2023-01-11T05:59:31.107Z,71.05
2023-01-11T06:04:40.351Z,71.01
2023-01-11T06:09:48.551Z,70.99
2023-01-11T06:14:56.876Z,70.99
2023-01-11T06:20:05.496Z,70.98
2023-01-11T06:25:14.152Z,70.98
2023-01-11T06:30:26.215Z,70.98
2023-01-11T06:35:35.151Z,70.99
2023-01-11T06:40:44.367Z,70.99
2023-01-11T06:45:53.102Z,70.96
2023-01-11T06:51:02.276Z,70.91
2023-01-11T06:56:13.018Z,70.85
2023-01-11T07:01:21.867Z,70.77
2023-01-11T07:06:32.490Z,70.64
2023-01-11T07:11:41.005Z,70.63
2023-01-11T07:16:49.567Z,70.60
2023-01-11T07:21:57.757Z,70.53
2023-01-11T07:27:06.060Z,70.42
2023-01-11T07:32:14.734Z,70.33
2023-01-11T07:37:29.112Z,70.33
2023-01-11T07:42:57.830Z,70.26
2023-01-11T07:48:07.318Z,70.20
2023-01-11T07:53:16.569Z,70.26
2023-01-11T07:58:25.445Z,70.27
2023-01-11T08:03:34.383Z,70.27
2023-01-11T08:08:42.796Z,70.27
2023-01-11T08:14:08.296Z,70.30
2023-01-11T08:19:16.773Z,70.42
2023-01-11T08:24:26.407Z,70.41
2023-01-11T08:29:35.057Z,70.39
2023-01-11T08:34:43.889Z,70.29
2023-01-11T08:39:53.007Z,70.14
2023-01-11T08:45:01.289Z,70.09
2023-01-11T08:50:10.907Z,70.15
2023-01-11T08:55:20.046Z,70.14
2023-01-11T09:05:59.343Z,70.33
2023-01-11T09:11:28.421Z,70.44
2023-01-11T09:16:36.754Z,70.51
2023-01-11T09:21:45.064Z,70.60
2023-01-11T09:26:53.554Z,70.68
2023-01-11T09:32:01.732Z,70.79
2023-01-11T09:37:10.776Z,70.80
2023-01-11T09:42:32.713Z,70.77
2023-01-11T09:47:44.927Z,70.81
2023-01-11T09:52:53.122Z,70.90
2023-01-11T09:58:22.228Z,70.96
2023-01-11T10:03:54.840Z,70.89
2023-01-11T10:18:35.341Z,70.84
2023-01-11T10:20:36.609Z,70.84
2023-01-11T10:25:52.193Z,70.88
2023-01-11T10:31:27.688Z,70.96
2023-01-11T10:37:02.126Z,71.12
2023-01-11T10:42:17.793Z,71.18
2023-01-11T10:47:33.163Z,71.28
2023-01-11T10:52:52.372Z,71.35
2023-01-11T10:58:12.458Z,71.40
2023-01-11T11:03:53.553Z,71.52
2023-01-11T11:09:12.383Z,71.61
2023-01-11T11:14:29.575Z,71.65
2023-01-11T11:19:38.419Z,71.74
2023-01-11T11:24:50.161Z,71.80
2023-01-11T11:29:59.163Z,71.83
2023-01-11T11:35:09.484Z,71.82
2023-01-11T11:40:34.133Z,71.83
2023-01-11T11:45:54.768Z,71.81
2023-01-11T11:51:05.177Z,71.78
2023-01-11T11:56:23.011Z,71.79
2023-01-11T12:01:35.387Z,71.73
2023-01-11T12:06:44.668Z,71.66
2023-01-11T12:11:53.531Z,71.66
2023-01-11T12:17:18.080Z,71.60
2023-01-11T12:22:28.437Z,71.56
2023-01-11T12:27:44.790Z,71.47
2023-01-11T12:33:09.914Z,71.34
2023-01-11T12:38:40.114Z,71.27
2023-01-11T12:44:07.430Z,71.15
2023-01-11T12:49:39.582Z,70.96
2023-01-11T12:55:07.438Z,70.77
2023-01-11T13:00:50.323Z,70.66
2023-01-11T13:06:08.600Z,70.64
2023-01-11T13:11:38.475Z,70.62
2023-01-11T13:16:55.329Z,70.59
2023-01-11T13:22:08.043Z,70.58
2023-01-11T13:27:22.860Z,70.62
2023-01-11T13:32:37.827Z,70.62
2023-01-11T13:37:51.159Z,70.58
2023-01-11T13:43:06.286Z,70.56
2023-01-11T13:48:23.962Z,70.51
2023-01-11T13:53:38.679Z,70.50
2023-01-11T13:58:55.552Z,70.45
2023-01-11T14:04:10.463Z,70.39
2023-01-11T14:09:41.347Z,70.34
2023-01-11T14:15:03.597Z,70.30
2023-01-11T14:20:23.631Z,70.24
2023-01-11T14:25:38.941Z,70.22
2023-01-11T14:31:00.407Z,70.13
2023-01-11T14:36:35.031Z,70.06
2023-01-11T14:42:18.791Z,70.04
2023-01-11T14:47:49.317Z,70.00
2023-01-11T14:53:05.329Z,69.97
2023-01-11T14:58:27.897Z,70.01
2023-01-11T15:03:47.847Z,70.04
2023-01-11T15:08:58.325Z,70.14
2023-01-11T15:14:20.964Z,70.11
2023-01-11T15:19:34.509Z,70.14
2023-01-11T15:24:45.994Z,70.13
2023-01-11T15:29:58.690Z,70.15
2023-01-11T15:35:35.745Z,70.24
2023-01-11T15:40:47.686Z,70.32
2023-01-11T15:46:55.687Z,70.39
2023-01-11T15:52:38.770Z,70.48
2023-01-11T15:58:09.897Z,70.63
2023-01-11T16:03:39.468Z,70.77
2023-01-11T16:08:57.789Z,70.93
2023-01-11T16:14:42.089Z,71.08
2023-01-11T16:19:55.799Z,71.22
2023-01-11T16:25:08.364Z,71.37
2023-01-11T16:30:22.131Z,71.48
2023-01-11T16:35:30.861Z,71.62
2023-01-11T16:40:43.564Z,71.74
2023-01-11T16:45:54.511Z,71.84
2023-01-11T16:51:08.985Z,71.94
2023-01-11T16:56:22.762Z,72.02
2023-01-11T17:01:50.239Z,72.09
2023-01-11T17:06:59.142Z,72.14
2023-01-11T17:12:09.735Z,72.19
2023-01-11T17:17:20.252Z,72.22
2023-01-11T17:22:32.543Z,72.25
2023-01-11T17:27:47.011Z,72.25
2023-01-11T17:32:59.539Z,72.23
2023-01-11T17:38:13.051Z,72.23
2023-01-11T17:43:42.902Z,72.20
2023-01-11T17:48:59.595Z,72.15
2023-01-11T17:54:20.233Z,72.10
2023-01-11T17:59:30.384Z,72.07
2023-01-11T18:04:39.261Z,72.01
2023-01-11T18:09:50.932Z,71.97
2023-01-11T18:15:01.623Z,71.92
2023-01-11T18:20:38.416Z,71.89
2023-01-11T18:25:47.588Z,71.84
2023-01-11T18:30:58.739Z,71.81
2023-01-11T18:36:20.726Z,71.74
2023-01-11T18:41:46.948Z,71.70
2023-01-11T18:46:55.211Z,71.68
2023-01-11T18:52:03.393Z,71.66
2023-01-11T18:57:12.060Z,71.62
2023-01-11T19:02:26.230Z,71.56
2023-01-11T19:07:34.743Z,71.48
2023-01-11T19:12:43.840Z,71.43
2023-01-11T19:17:52.681Z,71.39
2023-01-11T19:23:00.891Z,71.34
2023-01-11T19:28:09.683Z,71.29
2023-01-11T19:33:19.961Z,71.23
2023-01-11T19:38:28.376Z,71.15
2023-01-11T19:43:45.477Z,71.12
2023-01-11T19:48:53.960Z,71.10
2023-01-11T19:54:02.110Z,71.07
2023-01-11T19:59:11.574Z,71.03
2023-01-11T20:04:21.464Z,70.96
2023-01-11T20:09:31.087Z,70.89
2023-01-11T20:14:41.094Z,70.84
2023-01-11T20:19:55.521Z,70.77
2023-01-11T20:25:03.638Z,70.75
2023-01-11T20:30:14.384Z,70.73
2023-01-11T20:35:22.827Z,70.71
2023-01-11T20:40:31.241Z,70.69
2023-01-11T20:45:40.066Z,70.66
2023-01-11T20:50:49.561Z,70.63
2023-01-11T20:55:58.218Z,70.58
2023-01-11T21:01:11.170Z,70.54
2023-01-11T21:06:20.086Z,70.50
2023-01-11T21:11:29.276Z,70.42
2023-01-11T21:16:37.781Z,70.36
2023-01-11T21:21:49.003Z,70.33
2023-01-11T21:26:58.017Z,70.28
2023-01-11T21:32:06.746Z,70.24
2023-01-11T21:37:14.906Z,70.21
2023-01-11T21:42:23.479Z,70.18
2023-01-11T21:47:32.022Z,70.15
2023-01-11T21:52:40.621Z,70.14
2023-01-11T21:57:49.546Z,70.12
2023-01-11T22:02:58.257Z,70.11
2023-01-11T22:08:06.744Z,70.08
2023-01-11T22:13:15.106Z,70.04
2023-01-11T22:18:24.182Z,70.00
2023-01-11T22:23:32.894Z,69.96
2023-01-11T22:28:55.260Z,69.89
2023-01-11T22:34:02.108Z,69.86
2023-01-11T22:39:10.720Z,69.87
2023-01-11T22:44:19.835Z,69.75
2023-01-11T22:49:28.445Z,69.64
2023-01-11T22:54:37.121Z,69.63
2023-01-11T22:59:45.606Z,69.60
2023-01-11T23:04:53.841Z,69.62
2023-01-11T23:10:02.515Z,69.64
2023-01-11T23:15:12.509Z,69.67
2023-01-11T23:20:21.679Z,69.71
2023-01-11T23:25:30.125Z,69.72
2023-01-11T23:30:38.556Z,69.80
2023-01-11T23:35:46.730Z,69.82
2023-01-11T23:41:13.989Z,69.86
2023-01-11T23:46:40.037Z,69.91
2023-01-11T23:51:48.591Z,69.96
2023-01-11T23:56:57.018Z,70.02
